Time;durP1;ratioP1;P1;durP2;ratioP2;P2;SDS_P1;SDS_P2;PMS_P1;PMS_P2;Temp;Humidity;BMP_temperature;BMP_pressure;BME280_temperature;BME280_humidity;BME280_pressure;Samples;Min_cycle;Max_cycle;Signal;HPM_P1;HPM_P2
2024/03/07 00:00:26;;;;;;;35.67;21.73;;;;;;;5.93;79.50;99718.84;5066534;28;20077;-79
2024/03/07 00:02:51;;;;;;;35.17;20.85;;;;;;;5.83;79.17;99716.50;5063980;28;20040;-78
2024/03/07 00:05:24;;;;;;;32.95;21.48;;;;;;;5.86;78.71;99720.63;5062749;28;20029;-79
2024/03/07 00:07:50;;;;;;;34.55;21.02;;;;;;;5.80;79.38;99702.84;5061377;28;20032;-79
2024/03/07 00:10:16;;;;;;;29.88;18.73;;;;;;;5.82;79.04;99709.59;5062340;28;20090;-79
2024/03/07 00:12:42;;;;;;;30.40;19.80;;;;;;;5.56;79.17;99698.88;5061446;28;20036;-78
2024/03/07 00:15:09;;;;;;;37.58;21.80;;;;;;;4.82;79.15;99723.34;5060722;28;20043;-79
2024/03/07 00:17:35;;;;;;;36.45;21.67;;;;;;;5.09;81.74;99715.44;5063602;28;20024;-78
2024/03/07 00:20:01;;;;;;;40.33;24.23;;;;;;;4.19;77.75;99706.47;5061317;28;20036;-79
2024/03/07 00:22:29;;;;;;;37.45;20.92;;;;;;;5.39;80.75;99694.91;5067937;28;20033;-78
2024/03/07 00:24:55;;;;;;;36.10;21.00;;;;;;;4.70;80.82;99709.00;5059685;28;20028;-78
2024/03/07 00:27:21;;;;;;;34.58;20.45;;;;;;;5.37;81.19;99698.75;5067008;28;20036;-79
2024/03/07 00:29:53;;;;;;;35.58;21.63;;;;;;;5.60;78.71;99694.00;5062949;28;20024;-78
2024/03/07 00:32:22;;;;;;;34.35;21.63;;;;;;;5.49;78.33;99700.66;5027476;28;20044;-79
2024/03/07 00:34:48;;;;;;;34.25;19.95;;;;;;;5.54;78.13;99692.13;5055160;28;20078;-78
2024/03/07 00:37:14;;;;;;;34.50;21.90;;;;;;;5.59;77.59;99695.81;5056505;28;20028;-78
2024/03/07 00:39:39;;;;;;;32.38;20.58;;;;;;;5.62;77.98;99694.59;5057297;28;20032;-78
2024/03/07 00:42:05;;;;;;;33.20;20.63;;;;;;;5.43;77.89;99685.56;5060701;28;20068;-78
2024/03/07 00:44:30;;;;;;;32.88;19.95;;;;;;;5.46;77.97;99695.75;5045164;28;20419;-79
2024/03/07 00:46:56;;;;;;;38.60;22.13;;;;;;;5.40;77.99;99693.03;5026088;28;20040;-78
2024/03/07 00:49:22;;;;;;;35.63;21.90;;;;;;;5.37;77.57;99686.34;5061473;28;20060;-77
2024/03/07 00:51:48;;;;;;;39.42;23.42;;;;;;;5.31;78.04;99685.28;5022381;28;20063;-77
2024/03/07 00:54:13;;;;;;;38.90;24.10;;;;;;;5.31;78.00;99687.91;5055620;23;20048;-80
2024/03/07 00:56:39;;;;;;;37.85;23.58;;;;;;;5.19;78.11;99678.06;5059404;28;20540;-80
2024/03/07 00:59:05;;;;;;;39.17;22.58;;;;;;;5.27;77.80;99693.78;5059356;28;20028;-80
2024/03/07 01:01:33;;;;;;;40.30;23.48;;;;;;;5.19;77.35;99675.44;5059416;28;20044;-80
2024/03/07 01:04:00;;;;;;;42.38;23.08;;;;;;;5.27;76.75;99683.19;5059424;28;20021;-80
2024/03/07 01:06:25;;;;;;;38.20;22.33;;;;;;;5.17;77.32;99670.34;5049302;28;20447;-79
2024/03/07 01:08:51;;;;;;;34.58;22.33;;;;;;;4.86;78.77;99671.72;5032446;28;20119;-79
2024/03/07 01:11:17;;;;;;;36.67;22.73;;;;;;;5.06;78.06;99652.34;5048526;28;20146;-79
2024/03/07 01:13:43;;;;;;;51.30;25.83;;;;;;;4.12;79.08;99667.75;5044260;28;20048;-80
2024/03/07 01:16:09;;;;;;;43.17;23.52;;;;;;;4.85;80.17;99678.03;5044210;28;20121;-81
2024/03/07 01:18:35;;;;;;;39.78;22.67;;;;;;;5.10;79.62;99660.69;5044547;28;20497;-82
2024/03/07 01:21:04;;;;;;;41.15;26.63;;;;;;;3.89;79.23;99653.91;5051030;28;20037;-81
2024/03/07 01:23:31;;;;;;;47.85;25.80;;;;;;;4.65;79.70;99669.94;5054466;28;20020;-81
2024/03/07 01:26:00;;;;;;;38.22;23.48;;;;;;;4.62;80.55;99650.97;5034173;28;20401;-82
2024/03/07 01:28:29;;;;;;;36.20;22.90;;;;;;;5.26;78.52;99665.72;5056554;28;20672;-81
2024/03/07 01:30:56;;;;;;;38.70;24.98;;;;;;;5.37;78.30;99664.34;5031740;28;20037;-81
2024/03/07 01:33:21;;;;;;;37.83;22.58;;;;;;;5.38;76.94;99660.66;5057584;28;20033;-81
2024/03/07 01:35:46;;;;;;;36.90;22.77;;;;;;;5.16;77.95;99658.09;5057324;28;20047;-82
2024/03/07 01:38:13;;;;;;;38.13;24.13;;;;;;;5.22;77.92;99667.09;5036113;28;20071;-82
2024/03/07 01:40:43;;;;;;;39.58;24.27;;;;;;;5.20;77.24;99664.63;5054606;28;20082;-82
2024/03/07 01:43:08;;;;;;;36.72;24.73;;;;;;;5.16;78.29;99647.50;5056106;28;20033;-82
2024/03/07 01:45:36;;;;;;;38.35;24.20;;;;;;;5.00;78.18;99654.94;5057518;28;20428;-81
2024/03/07 01:48:02;;;;;;;43.97;28.23;;;;;;;3.70;79.40;99660.56;5042133;28;20115;-82
2024/03/07 01:50:27;;;;;;;45.58;26.98;;;;;;;3.49;81.38;99666.63;5036843;28;20547;-82
2024/03/07 01:52:55;;;;;;;49.45;26.63;;;;;;;4.19;81.37;99653.63;5058091;28;20112;-83
2024/03/07 01:55:21;;;;;;;47.17;29.02;;;;;;;3.98;79.61;99660.69;5057714;28;20032;-79
2024/03/07 01:57:47;;;;;;;47.13;28.23;;;;;;;3.21;82.65;99646.34;5060811;28;20031;-81
2024/03/07 02:00:13;;;;;;;56.67;31.48;;;;;;;2.18;83.45;99659.25;5054084;28;20036;-81
2024/03/07 02:02:39;;;;;;;48.97;28.17;;;;;;;2.49;87.84;99663.66;5056806;28;20035;-81
2024/03/07 02:05:05;;;;;;;51.80;30.35;;;;;;;1.79;87.82;99661.13;5058195;28;20143;-81
2024/03/07 02:07:31;;;;;;;54.50;31.75;;;;;;;2.07;88.37;99666.75;5057463;28;20113;-80
2024/03/07 02:10:02;;;;;;;51.17;30.45;;;;;;;1.38;89.29;99665.75;5040626;28;20036;-79
2024/03/07 02:12:29;;;;;;;57.67;32.60;;;;;;;1.52;90.31;99649.28;5060613;28;20033;-79
2024/03/07 02:14:56;;;;;;;60.30;32.78;;;;;;;1.50;91.43;99646.00;5055869;28;20059;-80
2024/03/07 02:17:21;;;;;;;57.80;32.28;;;;;;;1.88;90.77;99640.88;5036052;28;20032;-79
2024/03/07 02:19:46;;;;;;;55.20;32.28;;;;;;;1.50;90.47;99653.88;5035661;28;20041;-80
2024/03/07 02:22:13;;;;;;;62.10;35.35;;;;;;;1.51;90.99;99641.53;5056603;28;20051;-79
2024/03/07 02:24:38;;;;;;;57.53;31.75;;;;;;;1.38;91.06;99651.78;5031395;28;20083;-80
2024/03/07 02:27:03;;;;;;;56.20;32.97;;;;;;;1.37;91.75;99652.78;5047994;28;20538;-78
2024/03/07 02:29:30;;;;;;;58.78;32.15;;;;;;;1.37;91.58;99648.34;5030769;28;20493;-80
2024/03/07 02:31:56;;;;;;;59.03;31.98;;;;;;;1.52;92.26;99649.28;5054936;28;20425;-81
2024/03/07 02:34:22;;;;;;;61.22;34.17;;;;;;;1.79;91.72;99647.16;5049590;28;20378;-80
2024/03/07 02:36:47;;;;;;;55.75;33.72;;;;;;;1.65;90.59;99643.44;5052735;28;20033;-80
2024/03/07 02:39:12;;;;;;;56.78;33.22;;;;;;;1.41;91.33;99641.75;5047952;28;20053;-80
2024/03/07 02:41:38;;;;;;;59.03;31.88;;;;;;;1.38;91.59;99642.09;5052179;28;20023;-81
2024/03/07 02:44:03;;;;;;;58.20;34.10;;;;;;;1.31;92.01;99637.69;5049592;28;20809;-81
2024/03/07 02:46:29;;;;;;;66.35;34.83;;;;;;;1.48;92.29;99629.56;5049805;28;20025;-80
2024/03/07 02:48:55;;;;;;;62.80;33.80;;;;;;;1.75;91.85;99623.00;5052194;28;20056;-81
2024/03/07 02:51:20;;;;;;;55.00;32.33;;;;;;;1.49;91.36;99638.25;5049704;28;20056;-80
2024/03/07 02:53:45;;;;;;;55.95;31.88;;;;;;;2.04;92.45;99628.41;5035797;28;20095;-79
2024/03/07 02:56:11;;;;;;;54.35;31.90;;;;;;;2.19;91.60;99631.94;5052553;28;20029;-80
2024/03/07 02:58:37;;;;;;;59.15;32.67;;;;;;;2.07;89.32;99629.88;5050821;28;20043;-76
2024/03/07 03:01:05;;;;;;;58.55;31.98;;;;;;;1.45;90.78;99619.38;5033823;28;20032;-82
2024/03/07 03:03:31;;;;;;;57.97;32.17;;;;;;;1.66;90.47;99621.41;5018444;28;20456;-79
2024/03/07 03:05:57;;;;;;;58.95;33.72;;;;;;;1.38;90.30;99613.16;5048729;28;20035;-80
2024/03/07 03:08:23;;;;;;;55.92;30.83;;;;;;;2.15;92.10;99627.19;5032307;28;20133;-78
2024/03/07 03:10:51;;;;;;;64.20;33.22;;;;;;;1.59;90.47;99615.22;5028875;28;20047;-77
2024/03/07 03:13:16;;;;;;;57.63;32.47;;;;;;;2.03;91.17;99618.88;5050408;28;20040;-81
2024/03/07 03:15:42;;;;;;;58.92;31.58;;;;;;;2.00;91.07;99611.34;5026507;28;20044;-78
2024/03/07 03:18:07;;;;;;;48.47;29.20;;;;;;;2.89;90.56;99624.56;5043927;28;20060;-80
2024/03/07 03:20:38;;;;;;;53.00;30.45;;;;;;;3.30;88.20;99626.78;5045573;28;20067;-79
2024/03/07 03:23:05;;;;;;;52.53;28.13;;;;;;;2.92;86.58;99632.13;5043426;28;20072;-79
2024/03/07 03:25:34;;;;;;;48.45;29.08;;;;;;;2.75;87.15;99622.72;5042025;28;20145;-79
2024/03/07 03:28:00;;;;;;;58.25;32.38;;;;;;;2.34;87.89;99610.91;5046099;28;20717;-79
2024/03/07 03:30:26;;;;;;;52.03;30.45;;;;;;;2.98;88.21;99598.94;5024951;28;20632;-79
2024/03/07 03:32:51;;;;;;;46.40;29.67;;;;;;;3.20;88.56;99613.03;5044818;28;20036;-79
2024/03/07 03:35:18;;;;;;;50.63;28.45;;;;;;;2.52;88.18;99607.94;5042578;28;20024;-79
2024/03/07 03:37:44;;;;;;;53.67;31.92;;;;;;;2.43;87.23;99615.13;5024135;28;20791;-77
2024/03/07 03:40:10;;;;;;;57.30;31.75;;;;;;;2.11;88.67;99616.19;5041797;28;20044;-76
2024/03/07 03:42:37;;;;;;;55.03;31.55;;;;;;;1.96;89.59;99591.63;5044502;28;20489;-79
2024/03/07 03:45:07;;;;;;;60.92;31.70;;;;;;;1.89;89.18;99610.91;5044826;28;20017;-79
2024/03/07 03:47:37;;;;;;;52.63;29.45;;;;;;;2.34;90.79;99610.91;5049532;28;20413;-79
2024/03/07 03:50:09;;;;;;;57.15;32.70;;;;;;;2.10;88.21;99598.75;5052708;28;20468;-78
2024/03/07 03:52:35;;;;;;;58.17;32.45;;;;;;;1.82;89.25;99612.59;5051329;28;20036;-78
2024/03/07 03:55:02;;;;;;;60.00;33.80;;;;;;;1.89;89.40;99601.22;5030963;28;20458;-80
2024/03/07 03:57:29;;;;;;;59.00;33.53;;;;;;;1.96;90.23;99602.16;5049544;28;20074;-79
2024/03/07 03:59:54;;;;;;;59.75;32.83;;;;;;;2.06;89.51;99596.63;5055166;28;20037;-78
2024/03/07 04:02:21;;;;;;;55.92;32.72;;;;;;;1.51;90.46;99607.34;5025958;28;20032;-78
2024/03/07 04:04:48;;;;;;;57.30;33.25;;;;;;;1.64;90.55;99607.59;5033512;28;20037;-80
2024/03/07 04:07:13;;;;;;;58.95;33.08;;;;;;;1.74;91.01;99605.59;5033135;28;20064;-79
2024/03/07 04:09:39;;;;;;;64.18;34.05;;;;;;;2.11;90.98;99599.56;5029302;28;20647;-79
2024/03/07 04:12:05;;;;;;;58.60;33.28;;;;;;;2.35;89.31;99594.13;5025739;28;20029;-78
2024/03/07 04:14:32;;;;;;;60.47;33.83;;;;;;;2.24;89.24;99599.81;5048585;28;20078;-79
2024/03/07 04:16:58;;;;;;;61.42;33.75;;;;;;;1.55;90.16;99600.75;5048428;28;20035;-80
2024/03/07 04:19:23;;;;;;;60.35;32.13;;;;;;;1.83;91.48;99587.94;5047748;28;20032;-78
2024/03/07 04:21:49;;;;;;;63.17;33.78;;;;;;;2.02;90.49;99590.09;5048932;28;20078;-79
2024/03/07 04:24:14;;;;;;;60.58;34.10;;;;;;;1.82;90.45;99600.25;5027610;28;20062;-79
2024/03/07 04:26:41;;;;;;;54.10;30.35;;;;;;;2.87;91.01;99615.19;5030471;28;20068;-78
2024/03/07 04:29:08;;;;;;;57.20;30.52;;;;;;;2.58;88.78;99573.81;5045897;28;20554;-78
2024/03/07 04:31:34;;;;;;;58.47;32.30;;;;;;;2.02;88.49;99584.81;5045519;28;20033;-79
2024/03/07 04:33:59;;;;;;;53.35;31.08;;;;;;;2.76;89.71;99600.66;5024183;28;20035;-81
2024/03/07 04:36:24;;;;;;;58.65;31.98;;;;;;;2.20;88.21;99596.72;5052716;28;20080;-79
2024/03/07 04:38:51;;;;;;;55.58;33.50;;;;;;;2.21;88.89;99606.25;5054088;28;20048;-80
2024/03/07 04:41:16;;;;;;;56.42;32.95;;;;;;;2.62;89.32;99598.78;5052164;28;20089;-79
2024/03/07 04:43:44;;;;;;;60.80;35.08;;;;;;;1.99;88.71;99588.63;5054371;28;20515;-80
2024/03/07 04:46:10;;;;;;;65.53;35.17;;;;;;;2.24;89.29;99599.81;5054549;28;20453;-79
2024/03/07 04:48:35;;;;;;;58.67;32.00;;;;;;;1.84;89.23;99581.66;5056099;28;20025;-81
2024/03/07 04:51:01;;;;;;;66.65;36.03;;;;;;;1.93;89.69;99580.63;5054030;28;20469;-80
2024/03/07 04:53:26;;;;;;;57.85;33.88;;;;;;;2.50;90.23;99605.50;5021302;28;20097;-82
2024/03/07 04:55:51;;;;;;;63.10;36.42;;;;;;;2.21;88.80;99608.88;5051049;28;20044;-81
2024/03/07 04:58:17;;;;;;;52.30;30.90;;;;;;;3.54;90.02;99607.97;5054508;28;20052;-81
2024/03/07 05:00:42;;;;;;;59.95;32.50;;;;;;;3.71;86.49;99590.94;5047632;28;20029;-82
2024/03/07 05:03:09;;;;;;;51.83;31.40;;;;;;;3.43;85.52;99601.34;5049566;28;20702;-79
2024/03/07 05:05:35;;;;;;;47.58;29.10;;;;;;;3.35;88.00;99590.91;5050285;28;20029;-78
2024/03/07 05:08:00;;;;;;;56.53;32.50;;;;;;;2.81;86.73;99605.38;5054401;28;20035;-81
2024/03/07 05:10:28;;;;;;;63.42;34.72;;;;;;;2.78;86.72;99613.63;5059906;28;20096;-81
2024/03/07 05:12:53;;;;;;;56.10;31.58;;;;;;;2.77;87.57;99612.03;5065863;28;20041;-81
2024/03/07 05:15:18;;;;;;;56.03;32.72;;;;;;;2.17;88.45;99606.75;5047470;28;20636;-81
2024/03/07 05:17:44;;;;;;;65.57;35.47;;;;;;;2.39;88.69;99621.72;5042252;28;20043;-81
2024/03/07 05:20:10;;;;;;;60.38;33.55;;;;;;;2.45;88.56;99615.75;5042862;28;20037;-81
2024/03/07 05:22:40;;;;;;;53.15;31.02;;;;;;;3.29;88.84;99598.75;5057868;28;20025;-81
2024/03/07 05:25:06;;;;;;;60.70;34.30;;;;;;;2.80;86.49;99601.09;5056304;28;20700;-81
2024/03/07 05:27:33;;;;;;;60.85;32.72;;;;;;;2.26;87.86;99585.47;5016631;28;20101;-80
2024/03/07 05:29:59;;;;;;;61.22;33.53;;;;;;;2.05;88.85;99593.19;5059350;28;20039;-81
2024/03/07 05:32:26;;;;;;;67.25;36.33;;;;;;;2.39;88.95;99610.38;5034509;28;20025;-82
2024/03/07 05:34:53;;;;;;;60.40;34.15;;;;;;;2.18;90.10;99582.88;5052159;28;20036;-81
2024/03/07 05:37:21;;;;;;;68.07;36.28;;;;;;;2.13;90.15;99598.41;5051460;28;20131;-82
2024/03/07 05:39:49;;;;;;;68.68;35.05;;;;;;;2.19;89.90;99610.03;5038315;28;20504;-81
2024/03/07 05:42:15;;;;;;;62.15;35.30;;;;;;;1.98;89.25;99591.44;5053282;28;20025;-81
2024/03/07 05:44:44;;;;;;;64.57;35.42;;;;;;;2.17;89.80;99610.22;5057384;28;20036;-80
2024/03/07 05:47:13;;;;;;;62.83;34.72;;;;;;;2.40;89.54;99610.22;5054859;28;20505;-79
2024/03/07 05:49:39;;;;;;;63.85;35.38;;;;;;;1.98;90.10;99604.59;5056010;28;20032;-80
2024/03/07 05:52:05;;;;;;;61.22;32.80;;;;;;;2.57;91.41;99610.88;5036336;28;20036;-79
2024/03/07 05:54:32;;;;;;;68.00;35.40;;;;;;;2.10;90.37;99606.66;5058835;28;20363;-81
2024/03/07 05:56:57;;;;;;;59.60;34.63;;;;;;;2.19;89.64;99597.69;5060573;28;20025;-81
2024/03/07 05:59:22;;;;;;;69.78;36.63;;;;;;;1.99;90.20;99606.22;5059109;28;20366;-80
2024/03/07 06:01:48;;;;;;;54.83;30.77;;;;;;;2.39;91.93;99598.03;5022534;28;20039;-81
2024/03/07 06:04:15;;;;;;;67.32;36.75;;;;;;;1.77;90.65;99591.25;5056467;28;20033;-82
2024/03/07 06:06:41;;;;;;;65.35;36.15;;;;;;;1.76;91.78;99615.94;5041420;28;20032;-80
2024/03/07 06:09:08;;;;;;;60.95;34.20;;;;;;;2.27;92.03;99613.44;5060990;28;20028;-82
2024/03/07 06:11:38;;;;;;;57.33;31.52;;;;;;;2.29;91.66;99621.97;5042999;28;20563;-82
2024/03/07 06:14:05;;;;;;;60.13;32.95;;;;;;;2.62;90.73;99619.88;5053917;28;20021;-81
2024/03/07 06:16:36;;;;;;;63.53;33.55;;;;;;;2.27;90.87;99613.44;5037910;28;20165;-79
2024/03/07 06:19:03;;;;;;;60.45;34.17;;;;;;;2.27;89.75;99600.25;5031265;28;20036;-80
2024/03/07 06:21:32;;;;;;;66.40;37.92;;;;;;;2.11;90.07;99618.84;5060821;28;20108;-80
2024/03/07 06:24:02;;;;;;;62.22;34.25;;;;;;;1.85;91.76;99620.16;5043017;28;20037;-79
2024/03/07 06:26:47;;;;;;;70.55;36.85;;;;;;;1.92;91.75;99613.22;5036814;28;20017;-80
2024/03/07 06:29:13;;;;;;;61.97;33.67;;;;;;;2.21;91.54;99594.88;5053872;28;20033;-80
2024/03/07 06:31:40;;;;;;;62.45;34.72;;;;;;;2.07;91.17;99614.91;5048382;28;20092;-79
2024/03/07 06:34:06;;;;;;;62.03;34.63;;;;;;;1.96;91.14;99614.50;5051942;28;20022;-82
2024/03/07 06:36:32;;;;;;;61.58;34.70;;;;;;;2.22;91.45;99628.97;5026418;28;20029;-80
2024/03/07 06:38:58;;;;;;;61.65;33.13;;;;;;;2.20;91.84;99615.16;5060219;28;20029;-81
2024/03/07 06:41:24;;;;;;;61.13;34.28;;;;;;;2.17;91.30;99630.47;5054118;28;20489;-78
2024/03/07 06:43:50;;;;;;;65.22;34.85;;;;;;;1.92;91.35;99615.84;5041573;28;20040;-80
2024/03/07 06:46:16;;;;;;;60.00;33.97;;;;;;;2.08;91.86;99628.88;5050316;28;20481;-79
2024/03/07 06:48:42;;;;;;;72.85;35.45;;;;;;;2.03;91.58;99625.97;5062082;28;20140;-79
2024/03/07 06:51:08;;;;;;;65.88;36.00;;;;;;;2.06;92.56;99633.50;5044807;28;20060;-79
2024/03/07 06:53:33;;;;;;;67.97;35.00;;;;;;;1.92;92.93;99637.69;5045276;28;20033;-80
2024/03/07 06:56:00;;;;;;;63.97;34.47;;;;;;;2.44;91.20;99635.19;5075242;22;20115;-76
2024/03/07 06:58:26;;;;;;;63.83;34.53;;;;;;;1.93;91.62;99622.72;5069948;28;20024;-75
2024/03/07 07:00:53;;;;;;;64.75;34.00;;;;;;;1.98;92.63;99626.50;5035808;28;20021;-75
2024/03/07 07:03:19;;;;;;;57.75;32.03;;;;;;;2.91;93.37;99627.84;5066819;28;20166;-75
2024/03/07 07:05:45;;;;;;;65.90;36.78;;;;;;;2.17;91.43;99631.28;5039920;28;20033;-76
2024/03/07 07:08:12;;;;;;;64.90;35.38;;;;;;;2.05;92.42;99614.25;5024134;28;20091;-76
2024/03/07 07:10:40;;;;;;;64.03;33.38;;;;;;;1.87;92.56;99613.72;5040535;28;20680;-76
2024/03/07 07:13:06;;;;;;;64.78;35.70;;;;;;;2.21;92.38;99632.56;5038918;28;20478;-76
2024/03/07 07:15:31;;;;;;;67.82;35.50;;;;;;;2.31;92.19;99618.34;5041137;28;20104;-76
2024/03/07 07:17:56;;;;;;;62.53;32.83;;;;;;;2.65;93.47;99632.72;5022050;28;20490;-76
2024/03/07 07:20:23;;;;;;;66.63;36.90;;;;;;;2.71;91.63;99636.47;5041576;28;20013;-76
2024/03/07 07:22:50;;;;;;;70.47;37.22;;;;;;;2.90;90.37;99620.94;5041256;28;20478;-76
2024/03/07 07:25:16;;;;;;;67.78;36.88;;;;;;;2.49;91.20;99634.69;5039780;28;20021;-76
2024/03/07 07:27:46;;;;;;;65.68;34.72;;;;;;;2.04;92.71;99628.41;5040662;28;20049;-76
2024/03/07 07:30:14;;;;;;;61.08;35.47;;;;;;;2.30;92.53;99625.44;5043466;28;20053;-76
2024/03/07 07:32:41;;;;;;;59.38;32.90;;;;;;;2.19;92.75;99628.47;5050895;28;20033;-76
2024/03/07 07:35:11;;;;;;;62.80;36.00;;;;;;;2.20;93.24;99625.69;5039029;28;20028;-76
2024/03/07 07:37:37;;;;;;;62.17;36.17;;;;;;;2.10;92.92;99618.97;5022515;28;20029;-76
2024/03/07 07:40:03;;;;;;;62.25;35.30;;;;;;;1.93;93.52;99620.91;5055116;28;20029;-77
2024/03/07 07:42:29;;;;;;;67.38;34.25;;;;;;;2.27;93.06;99629.22;5044524;28;20056;-77
2024/03/07 07:44:54;;;;;;;60.78;34.50;;;;;;;2.23;94.06;99627.94;5036093;28;20065;-77
2024/03/07 07:47:20;;;;;;;64.68;33.42;;;;;;;2.43;93.79;99630.91;5036246;28;20108;-77
2024/03/07 07:49:45;;;;;;;69.53;35.17;;;;;;;2.05;93.71;99624.78;5023511;28;20029;-77
2024/03/07 07:52:11;;;;;;;70.18;35.78;;;;;;;2.39;93.85;99632.28;5040948;28;20497;-77
2024/03/07 07:54:42;;;;;;;67.47;36.42;;;;;;;2.29;94.64;99621.16;5054655;28;20067;-77
2024/03/07 07:57:08;;;;;;;66.25;35.47;;;;;;;2.08;93.89;99621.81;5027273;28;20450;-77
2024/03/07 07:59:33;;;;;;;71.20;37.88;;;;;;;2.35;93.93;99623.09;5014489;28;20059;-77
2024/03/07 08:01:58;;;;;;;66.53;36.22;;;;;;;2.24;94.43;99626.97;5036243;28;20453;-76
2024/03/07 08:04:23;;;;;;;74.90;37.05;;;;;;;2.03;95.22;99610.97;5041057;28;20048;-77
2024/03/07 08:06:49;;;;;;;72.47;36.75;;;;;;;2.79;94.15;99617.94;5019826;28;20440;-77
2024/03/07 08:09:16;;;;;;;75.50;36.85;;;;;;;2.51;92.72;99617.66;5042190;28;20024;-77
2024/03/07 08:11:42;;;;;;;70.38;35.47;;;;;;;2.88;92.27;99616.84;5040365;28;20037;-78
2024/03/07 08:14:07;;;;;;;65.22;34.28;;;;;;;2.94;92.01;99622.22;5027035;28;20024;-77
2024/03/07 08:16:33;;;;;;;73.43;38.03;;;;;;;2.69;91.95;99625.25;5022925;28;20405;-77
2024/03/07 08:18:59;;;;;;;59.40;31.60;;;;;;;3.21;93.57;99623.38;5042148;28;20086;-77
2024/03/07 08:21:24;;;;;;;72.68;37.55;;;;;;;2.73;91.16;99610.75;5045579;28;20112;-78
2024/03/07 08:23:49;;;;;;;69.60;35.88;;;;;;;2.82;93.35;99617.53;5027774;28;20055;-77
2024/03/07 08:26:15;;;;;;;75.28;35.75;;;;;;;3.22;93.30;99624.22;5045159;28;20381;-78
2024/03/07 08:28:41;;;;;;;68.68;35.95;;;;;;;2.72;93.12;99612.56;5021848;28;20449;-77
2024/03/07 08:31:06;;;;;;;75.72;39.00;;;;;;;2.58;93.59;99630.97;5016662;28;20541;-77
2024/03/07 08:33:33;;;;;;;78.97;38.75;;;;;;;2.14;96.37;99626.34;5016263;28;20032;-78
2024/03/07 08:35:59;;;;;;;71.57;37.97;;;;;;;2.11;96.94;99628.53;5049982;28;20396;-78
2024/03/07 08:38:24;;;;;;;79.90;39.00;;;;;;;2.46;96.83;99629.75;5037653;28;20029;-78
2024/03/07 08:40:50;;;;;;;69.15;33.42;;;;;;;3.24;96.53;99614.28;5025856;28;20100;-80
2024/03/07 08:43:15;;;;;;;79.90;40.42;;;;;;;2.45;94.95;99626.28;5029169;28;20029;-80
2024/03/07 08:45:41;;;;;;;75.38;38.85;;;;;;;2.52;96.66;99616.69;5042508;28;20094;-78
2024/03/07 08:48:09;;;;;;;61.72;34.22;;;;;;;3.48;95.68;99612.19;5048921;28;20052;-79
2024/03/07 08:50:37;;;;;;;67.65;35.70;;;;;;;3.57;94.21;99611.09;5052387;28;20107;-80
2024/03/07 08:53:04;;;;;;;70.05;38.55;;;;;;;3.70;92.54;99602.50;5043959;28;20037;-80
2024/03/07 08:55:30;;;;;;;76.80;37.42;;;;;;;3.19;92.80;99611.41;5044987;28;20574;-80
2024/03/07 08:57:56;;;;;;;76.25;37.95;;;;;;;3.20;95.02;99605.94;5046865;28;20056;-78
2024/03/07 09:00:24;;;;;;;69.47;32.85;;;;;;;3.97;93.68;99599.16;5042360;28;20039;-80
2024/03/07 09:02:54;;;;;;;63.65;36.83;;;;;;;3.59;92.73;99592.41;5041336;28;20501;-78
2024/03/07 09:05:22;;;;;;;62.40;34.40;;;;;;;4.57;88.97;99599.50;5030043;28;20041;-78
2024/03/07 09:07:47;;;;;;;67.05;32.63;;;;;;;4.44;90.94;99607.31;5036703;28;20025;-79
2024/03/07 09:10:17;;;;;;;59.97;32.42;;;;;;;4.99;87.84;99603.03;5024121;28;20055;-80
2024/03/07 09:12:42;;;;;;;53.17;30.27;;;;;;;5.07;86.72;99584.34;5043212;28;20048;-78
2024/03/07 09:15:10;;;;;;;60.20;30.52;;;;;;;4.88;88.08;99593.00;5042440;28;20064;-79
2024/03/07 09:17:36;;;;;;;58.45;31.00;;;;;;;5.17;86.58;99598.88;5039482;28;20035;-79
2024/03/07 09:20:05;;;;;;;55.83;31.35;;;;;;;5.37;86.12;99596.34;5041557;28;20116;-78
2024/03/07 09:22:31;;;;;;;56.92;31.52;;;;;;;4.97;85.95;99583.91;5028316;28;20458;-80
2024/03/07 09:24:57;;;;;;;60.60;32.78;;;;;;;4.84;87.21;99584.63;5038211;28;20030;-79
2024/03/07 09:27:22;;;;;;;56.58;30.83;;;;;;;4.92;86.93;99588.94;5044875;28;20036;-78
2024/03/07 09:29:48;;;;;;;63.45;34.10;;;;;;;5.11;85.29;99585.63;5046598;28;20033;-80
2024/03/07 09:32:14;;;;;;;54.42;28.17;;;;;;;5.07;83.63;99584.34;5032738;28;20059;-80
2024/03/07 09:34:39;;;;;;;51.65;26.98;;;;;;;5.27;84.73;99580.00;5043635;28;20044;-77
2024/03/07 09:37:07;;;;;;;50.65;27.27;;;;;;;4.85;83.00;99578.31;5033591;28;20061;-78
2024/03/07 09:39:34;;;;;;;52.25;27.25;;;;;;;5.02;83.17;99562.97;5063485;28;20055;-79
2024/03/07 09:42:03;;;;;;;51.78;26.52;;;;;;;5.20;82.71;99581.78;5046153;28;20087;-79
2024/03/07 09:44:31;;;;;;;53.83;27.63;;;;;;;4.82;83.21;99578.72;5044894;28;20037;-79
2024/03/07 09:46:59;;;;;;;61.78;30.08;;;;;;;4.96;82.68;99588.38;5037974;28;20036;-76
2024/03/07 09:49:28;;;;;;;57.22;28.33;;;;;;;4.87;82.97;99583.44;5038947;28;20037;-77
2024/03/07 09:51:56;;;;;;;50.35;27.13;;;;;;;5.08;83.05;99586.00;5060696;28;20100;-77
2024/03/07 09:54:24;;;;;;;58.17;28.42;;;;;;;5.08;82.66;99570.13;5056664;28;20025;-78
2024/03/07 09:56:51;;;;;;;52.55;27.73;;;;;;;5.26;83.25;99573.88;5031819;28;20033;-79
2024/03/07 09:59:20;;;;;;;50.70;28.13;;;;;;;5.23;82.48;99568.16;5039755;28;20055;-79
2024/03/07 10:01:50;;;;;;;53.58;28.27;;;;;;;5.15;81.79;99592.16;5048965;28;20091;-78
2024/03/07 10:04:26;;;;;;;58.15;27.80;;;;;;;5.03;81.61;99583.13;5058768;28;20389;-77
2024/03/07 10:06:53;;;;;;;58.67;27.25;;;;;;;5.06;81.70;99588.84;5046563;28;20116;-77
2024/03/07 10:09:21;;;;;;;56.00;28.95;;;;;;;4.90;82.60;99588.31;5053157;28;20080;-79
2024/03/07 10:11:56;;;;;;;48.15;25.70;;;;;;;5.21;83.12;99576.31;5042096;28;20026;-78
2024/03/07 10:14:21;;;;;;;58.05;27.95;;;;;;;5.07;81.54;99584.34;5046291;28;20020;-77
2024/03/07 10:16:47;;;;;;;51.72;27.10;;;;;;;5.29;82.93;99572.66;5056062;28;20029;-79
2024/03/07 10:19:12;;;;;;;50.38;27.00;;;;;;;4.98;81.85;99577.63;5023333;28;20500;-79
2024/03/07 10:21:40;;;;;;;57.25;27.95;;;;;;;4.86;82.02;99573.84;5043306;28;20029;-79
2024/03/07 10:24:07;;;;;;;52.90;27.08;;;;;;;4.70;82.43;99579.44;5025657;28;20034;-78
2024/03/07 10:26:34;;;;;;;52.92;25.00;;;;;;;4.99;83.89;99555.41;5024800;28;20036;-79
2024/03/07 10:29:00;;;;;;;51.38;26.58;;;;;;;4.61;81.59;99567.41;5033044;28;20044;-79
2024/03/07 10:31:32;;;;;;;56.97;27.92;;;;;;;4.69;81.96;99556.66;5038834;28;20028;-78
2024/03/07 10:34:04;;;;;;;54.42;26.98;;;;;;;4.88;82.13;99574.47;5046191;28;20044;-78
2024/03/07 10:36:31;;;;;;;55.13;27.48;;;;;;;4.71;81.14;99573.97;5044699;28;20085;-78
2024/03/07 10:39:01;;;;;;;53.22;28.52;;;;;;;4.86;81.64;99574.69;5035394;28;20067;-79
2024/03/07 10:41:30;;;;;;;44.65;25.60;;;;;;;5.03;83.02;99544.25;5042446;28;20493;-79
2024/03/07 10:44:00;;;;;;;56.03;27.02;;;;;;;4.91;80.28;99560.88;5043219;28;20061;-78
2024/03/07 10:46:26;;;;;;;55.15;28.02;;;;;;;4.99;79.44;99555.41;5013198;28;20029;-78
2024/03/07 10:48:58;;;;;;;57.50;27.50;;;;;;;5.14;79.67;99562.22;5051427;28;20039;-78
2024/03/07 10:51:33;;;;;;;48.92;26.25;;;;;;;5.11;77.29;99559.16;5043997;28;20512;-78
2024/03/07 10:54:38;;;;;;;53.08;26.48;;;;;;;5.55;78.54;99553.44;5032654;28;20055;-80
2024/03/07 10:57:43;;;;;;;47.45;26.08;;;;;;;5.44;76.13;99541.56;5045149;28;20117;-80
2024/03/07 11:00:29;;;;;;;47.63;24.73;;;;;;;5.49;74.61;99527.75;5021397;28;20039;-77
2024/03/07 11:02:55;;;;;;;41.83;23.98;;;;;;;5.60;74.25;99533.28;5007279;28;20037;-76
2024/03/07 11:05:24;;;;;;;52.10;23.33;;;;;;;5.44;72.21;99543.44;5035337;28;20053;-78
2024/03/07 11:07:51;;;;;;;50.70;24.40;;;;;;;5.28;70.63;99534.00;5049275;28;20029;-78
2024/03/07 11:10:20;;;;;;;48.72;23.17;;;;;;;5.72;73.36;99547.56;5030310;28;20381;-76
2024/03/07 11:12:49;;;;;;;47.95;23.33;;;;;;;5.82;71.56;99539.25;5035480;28;20076;-79
2024/03/07 11:15:21;;;;;;;44.72;23.58;;;;;;;5.82;71.88;99533.94;5035158;28;20030;-79
2024/03/07 11:17:49;;;;;;;45.53;23.77;;;;;;;6.00;72.51;99545.66;5042171;28;20450;-76
2024/03/07 11:20:24;;;;;;;56.58;25.55;;;;;;;5.93;70.06;99546.63;5036911;28;20029;-80
2024/03/07 11:22:51;;;;;;;49.85;23.95;;;;;;;5.65;68.13;99541.47;5032902;28;21844;-79